createdAt,value
2023-04-18T00:00:10.694Z,83.60
2023-04-18T00:02:38.917Z,83.60
2023-04-18T00:05:07.810Z,83.70
2023-04-18T00:07:37.941Z,83.80
2023-04-18T00:10:06.877Z,83.80
2023-04-18T00:12:43.072Z,83.70
2023-04-18T00:15:11.574Z,83.70
2023-04-18T00:17:38.772Z,83.60
2023-04-18T00:20:12.782Z,83.60
2023-04-18T00:22:42.677Z,83.50
2023-04-18T00:25:11.178Z,83.50
2023-04-18T00:27:41.875Z,83.50
2023-04-18T00:30:09.758Z,83.10
2023-04-18T00:32:36.637Z,83.70
2023-04-18T00:35:04.146Z,84.00
2023-04-18T00:37:31.048Z,84.10
2023-04-18T00:39:57.917Z,84.10
2023-04-18T00:42:27.824Z,84.10
2023-04-18T00:44:54.861Z,83.90
2023-04-18T00:47:21.748Z,83.70
2023-04-18T00:49:48.874Z,83.60
2023-04-18T00:52:18.547Z,83.50
2023-04-18T00:54:47.315Z,83.50
2023-04-18T00:57:14.683Z,83.60
2023-04-18T00:59:42.429Z,83.70
2023-04-18T01:02:09.389Z,83.80
2023-04-18T01:04:37.298Z,83.80
2023-04-18T01:07:05.979Z,83.90
2023-04-18T01:09:32.957Z,83.80
2023-04-18T01:11:59.831Z,83.90
2023-04-18T01:14:26.639Z,84.30
2023-04-18T01:16:53.609Z,83.80
2023-04-18T01:19:20.768Z,84.00
2023-04-18T01:21:47.971Z,83.90
2023-04-18T01:24:17.367Z,83.90
2023-04-18T01:26:49.478Z,83.80
2023-04-18T01:29:16.488Z,83.50
2023-04-18T01:31:43.432Z,83.50
2023-04-18T01:34:10.407Z,83.50
2023-04-18T01:36:38.918Z,83.50
2023-04-18T01:39:06.672Z,83.50
2023-04-18T01:41:33.572Z,83.60
2023-04-18T01:44:01.610Z,83.80
2023-04-18T01:46:28.948Z,83.80
2023-04-18T01:48:57.204Z,83.80
2023-04-18T01:51:24.037Z,83.90
2023-04-18T01:53:51.115Z,84.10
2023-04-18T01:56:17.958Z,84.00
2023-04-18T01:58:44.932Z,84.00
2023-04-18T02:01:11.761Z,83.90
2023-04-18T02:03:39.286Z,84.00
2023-04-18T02:06:06.894Z,84.10
2023-04-18T02:08:35.877Z,84.20
2023-04-18T02:11:03.035Z,84.20
2023-04-18T02:13:29.951Z,84.30
2023-04-18T02:15:56.996Z,84.20
2023-04-18T02:18:25.490Z,84.20
2023-04-18T02:20:52.661Z,84.10
2023-04-18T02:23:19.588Z,84.30
2023-04-18T02:25:46.487Z,84.50
2023-04-18T02:28:13.358Z,84.50
2023-04-18T02:30:40.315Z,84.40
2023-04-18T02:33:07.180Z,84.40
2023-04-18T02:35:34.059Z,84.30
2023-04-18T02:38:01.005Z,84.30
2023-04-18T02:40:27.910Z,84.20
2023-04-18T02:42:55.104Z,84.20
2023-04-18T02:45:22.475Z,84.30
2023-04-18T02:47:55.572Z,84.20
2023-04-18T02:50:24.779Z,84.20
2023-04-18T02:52:51.749Z,83.90
2023-04-18T02:55:18.917Z,83.80
2023-04-18T02:57:45.854Z,83.80
2023-04-18T03:00:13.991Z,83.90
2023-04-18T03:02:41.082Z,83.90
2023-04-18T03:05:14.312Z,83.80
2023-04-18T03:07:41.243Z,83.90
2023-04-18T03:10:08.784Z,83.90
2023-04-18T03:12:35.748Z,84.00
2023-04-18T03:15:02.945Z,84.00
2023-04-18T03:17:29.858Z,84.10
2023-04-18T03:19:56.698Z,84.00
2023-04-18T03:22:23.604Z,83.80
2023-04-18T03:24:50.459Z,84.00
2023-04-18T03:27:17.535Z,84.00
2023-04-18T03:29:44.472Z,84.10
2023-04-18T03:32:11.471Z,84.10
2023-04-18T03:34:38.698Z,84.10
2023-04-18T03:37:05.601Z,84.10
2023-04-18T03:39:32.590Z,84.10
2023-04-18T03:41:59.405Z,84.10
2023-04-18T03:44:26.239Z,84.10
2023-04-18T03:46:54.193Z,84.10
2023-04-18T03:49:21.004Z,84.00
2023-04-18T03:51:48.084Z,84.00
2023-04-18T03:54:16.984Z,84.10
2023-04-18T03:56:45.047Z,84.20
2023-04-18T03:59:12.331Z,84.30
2023-04-18T04:01:39.395Z,84.20
2023-04-18T04:04:06.572Z,84.20
2023-04-18T04:06:33.588Z,84.20
2023-04-18T04:09:00.942Z,84.10
2023-04-18T04:11:27.870Z,84.20
2023-04-18T04:13:54.809Z,84.20
2023-04-18T04:16:21.923Z,84.20
2023-04-18T04:18:48.922Z,84.30
2023-04-18T04:21:15.872Z,84.40
2023-04-18T04:23:42.938Z,84.30
2023-04-18T04:26:10.136Z,84.50
2023-04-18T04:28:37.042Z,84.50
2023-04-18T04:31:08.061Z,84.60
2023-04-18T04:33:35.639Z,84.60
2023-04-18T04:36:02.458Z,84.70
2023-04-18T04:38:31.025Z,84.60
2023-04-18T04:40:58.429Z,84.60
2023-04-18T04:43:26.111Z,84.60
2023-04-18T04:45:53.766Z,84.60
2023-04-18T04:48:22.070Z,84.60
2023-04-18T04:50:55.692Z,84.50
2023-04-18T04:53:24.050Z,83.70
2023-04-18T04:55:51.850Z,84.60
2023-04-18T04:58:20.008Z,84.60
2023-04-18T05:00:47.110Z,84.60
2023-04-18T05:03:14.103Z,84.50
2023-04-18T05:05:41.350Z,85.00
2023-04-18T05:08:08.316Z,84.50
2023-04-18T05:10:37.247Z,84.60
2023-04-18T05:13:05.053Z,84.60
2023-04-18T05:15:32.636Z,84.50
2023-04-18T05:17:59.680Z,84.50
2023-04-18T05:20:26.518Z,84.60
2023-04-18T05:22:53.781Z,84.60
2023-04-18T05:25:20.943Z,84.70
2023-04-18T05:27:47.945Z,84.70
2023-04-18T05:30:14.900Z,84.80
2023-04-18T05:32:42.059Z,84.90
2023-04-18T05:35:09.920Z,84.80
2023-04-18T05:37:36.806Z,84.80
2023-04-18T05:40:05.554Z,84.70
2023-04-18T05:42:32.736Z,84.40
2023-04-18T05:44:59.652Z,84.70
2023-04-18T05:47:28.610Z,85.00
2023-04-18T05:49:56.220Z,85.10
2023-04-18T05:52:23.262Z,85.30
2023-04-18T05:54:50.180Z,85.50
2023-04-18T05:57:17.050Z,85.90
2023-04-18T05:59:44.193Z,86.10
2023-04-18T06:02:13.700Z,86.40
2023-04-18T06:04:42.859Z,86.70
2023-04-18T06:07:10.462Z,86.70
2023-04-18T06:09:37.424Z,86.60
2023-04-18T06:12:04.721Z,86.50
2023-04-18T06:14:31.819Z,85.60
2023-04-18T06:16:59.019Z,86.00
2023-04-18T06:19:26.103Z,86.40
2023-04-18T06:21:54.835Z,86.40
2023-04-18T06:24:21.848Z,86.70
2023-04-18T06:26:48.889Z,86.50
2023-04-18T06:29:17.996Z,85.60
2023-04-18T06:32:05.330Z,84.60
2023-04-18T06:35:49.514Z,78.50
2023-04-18T06:38:16.544Z,84.20
2023-04-18T06:40:43.550Z,84.60
2023-04-18T06:43:10.473Z,85.40
2023-04-18T06:45:37.492Z,85.70
2023-04-18T06:48:05.715Z,86.30
2023-04-18T06:50:32.779Z,86.30
2023-04-18T06:52:59.724Z,86.00
2023-04-18T06:55:26.602Z,86.00
2023-04-18T06:57:53.591Z,87.00
2023-04-18T07:00:21.033Z,87.00
2023-04-18T07:02:48.579Z,86.40
2023-04-18T07:05:15.507Z,85.40
2023-04-18T07:07:42.550Z,84.80
2023-04-18T07:10:11.698Z,84.40
2023-04-18T07:12:38.667Z,84.50
2023-04-18T07:15:06.334Z,84.80
2023-04-18T07:17:33.312Z,85.20
2023-04-18T07:20:00.166Z,85.00
2023-04-18T07:22:27.085Z,85.00
2023-04-18T07:24:53.937Z,84.20
2023-04-18T07:27:20.973Z,83.40
2023-04-18T07:29:47.866Z,83.40
2023-04-18T07:32:14.701Z,83.10
2023-04-18T07:34:41.585Z,82.60
2023-04-18T07:37:08.745Z,81.90
2023-04-18T07:39:36.215Z,81.50
2023-04-18T07:42:06.191Z,81.60
2023-04-18T07:44:35.635Z,80.60
2023-04-18T07:47:03.708Z,81.30
2023-04-18T07:49:30.677Z,82.70
2023-04-18T07:51:57.823Z,83.40
2023-04-18T07:54:24.685Z,83.90
2023-04-18T07:56:51.491Z,84.10
2023-04-18T07:59:18.411Z,83.60
2023-04-18T08:01:45.255Z,83.00
2023-04-18T08:04:12.777Z,82.70
2023-04-18T08:06:39.754Z,81.80
2023-04-18T08:09:07.887Z,81.50
2023-04-18T08:11:35.520Z,81.90
2023-04-18T08:14:02.696Z,82.20
2023-04-18T08:16:29.607Z,82.40
2023-04-18T08:18:57.264Z,82.10
2023-04-18T08:21:24.298Z,81.70
2023-04-18T08:23:51.132Z,80.80
2023-04-18T08:26:18.254Z,80.00
2023-04-18T08:28:46.533Z,79.20
2023-04-18T08:31:15.142Z,78.40
2023-04-18T08:33:42.218Z,78.20
2023-04-18T08:36:09.697Z,78.10
2023-04-18T08:38:36.518Z,78.10
2023-04-18T08:41:03.439Z,78.30
2023-04-18T08:43:31.442Z,78.10
2023-04-18T08:46:00.527Z,78.10
2023-04-18T08:48:28.446Z,78.40
2023-04-18T08:50:59.632Z,78.80
2023-04-18T08:53:27.599Z,77.70
2023-04-18T08:55:57.207Z,79.00
2023-04-18T08:58:27.490Z,79.00
2023-04-18T09:00:55.328Z,79.80
2023-04-18T09:03:43.242Z,80.20
2023-04-18T09:06:18.948Z,75.00
2023-04-18T09:08:58.927Z,78.40
2023-04-18T09:11:29.011Z,76.30
2023-04-18T09:13:58.808Z,80.30
2023-04-18T09:16:27.787Z,79.60
2023-04-18T09:19:13.737Z,79.40
2023-04-18T09:21:47.204Z,74.70
2023-04-18T09:24:24.805Z,79.00
2023-04-18T09:26:54.100Z,76.10
2023-04-18T09:29:24.775Z,78.90
2023-04-18T09:32:03.454Z,78.90
2023-04-18T09:34:34.124Z,77.80
2023-04-18T09:37:11.009Z,79.40
2023-04-18T09:39:44.486Z,76.70
2023-04-18T09:42:12.472Z,77.80
2023-04-18T09:45:08.315Z,79.50
2023-04-18T09:47:37.421Z,79.40
2023-04-18T09:50:07.725Z,79.40
2023-04-18T09:52:38.105Z,79.50
2023-04-18T09:55:08.360Z,79.80
2023-04-18T09:57:37.112Z,80.00
2023-04-18T10:00:24.539Z,80.40
2023-04-18T10:03:08.212Z,79.60
2023-04-18T10:05:39.280Z,77.70
2023-04-18T10:08:07.861Z,80.50
2023-04-18T10:10:35.107Z,80.00
2023-04-18T10:13:03.295Z,80.10
2023-04-18T10:15:32.407Z,80.00
2023-04-18T10:18:15.683Z,79.50
2023-04-18T10:20:42.617Z,77.70
2023-04-18T10:23:28.284Z,79.10
2023-04-18T10:25:55.401Z,73.00
2023-04-18T10:28:24.320Z,77.70
2023-04-18T10:30:54.692Z,76.90
2023-04-18T10:33:31.130Z,76.60
2023-04-18T10:36:14.857Z,77.00
2023-04-18T10:38:59.964Z,72.50
2023-04-18T10:41:32.927Z,76.90
2023-04-18T10:44:09.570Z,77.10
2023-04-18T10:47:03.965Z,73.40
2023-04-18T10:49:33.552Z,74.80
2023-04-18T10:52:03.108Z,77.20
2023-04-18T10:54:56.467Z,76.70
2023-04-18T10:57:25.396Z,76.80
2023-04-18T10:59:52.931Z,77.40
2023-04-18T11:02:32.197Z,77.50
2023-04-18T11:05:06.658Z,77.90
2023-04-18T11:07:44.779Z,77.30
2023-04-18T11:10:12.923Z,79.20
2023-04-18T11:12:41.389Z,83.20
2023-04-18T11:15:23.947Z,83.10
2023-04-18T11:18:05.107Z,79.70
2023-04-18T11:20:47.463Z,74.70
2023-04-18T11:23:22.917Z,74.80
2023-04-18T11:25:54.702Z,75.90
2023-04-18T11:28:24.787Z,77.30
2023-04-18T11:30:51.716Z,76.30
2023-04-18T11:33:18.713Z,76.00
2023-04-18T11:35:46.880Z,76.00
2023-04-18T11:38:15.927Z,75.60
2023-04-18T11:40:50.210Z,75.10
2023-04-18T11:43:23.935Z,71.90
2023-04-18T11:45:55.869Z,73.00
2023-04-18T11:48:23.424Z,74.80
2023-04-18T11:50:50.590Z,75.30
2023-04-18T11:53:37.158Z,76.10
2023-04-18T11:56:05.985Z,70.90
2023-04-18T11:58:56.753Z,77.30
2023-04-18T12:01:27.078Z,76.60
2023-04-18T12:04:26.801Z,72.30
2023-04-18T12:06:54.541Z,73.40
2023-04-18T12:09:24.818Z,77.60
2023-04-18T12:11:59.669Z,76.20
2023-04-18T12:14:28.123Z,71.90
2023-04-18T12:16:55.100Z,75.10
2023-04-18T12:19:30.239Z,74.80
2023-04-18T12:22:03.127Z,72.60
2023-04-18T12:24:30.165Z,75.10
2023-04-18T12:26:58.146Z,75.30
2023-04-18T12:29:27.008Z,75.80
2023-04-18T12:31:53.859Z,75.50
2023-04-18T12:34:21.055Z,75.40
2023-04-18T12:36:48.201Z,75.00
2023-04-18T12:39:15.241Z,73.70
2023-04-18T12:41:43.398Z,74.20
2023-04-18T12:44:10.291Z,74.50
2023-04-18T12:46:37.199Z,74.10
2023-04-18T12:49:04.172Z,73.30
2023-04-18T12:51:31.468Z,73.10
2023-04-18T12:53:58.311Z,72.90
2023-04-18T12:56:25.311Z,72.60
2023-04-18T12:58:52.131Z,73.00
2023-04-18T13:01:19.891Z,72.60
2023-04-18T13:03:53.415Z,72.20
2023-04-18T13:06:27.114Z,71.70
2023-04-18T13:08:53.941Z,72.40
2023-04-18T13:11:22.517Z,72.40
2023-04-18T13:13:49.370Z,72.80
2023-04-18T13:16:16.606Z,72.00
2023-04-18T13:18:43.502Z,72.10
2023-04-18T13:21:10.389Z,72.00
2023-04-18T13:23:37.361Z,72.20
2023-04-18T13:26:04.273Z,72.20
2023-04-18T13:28:31.176Z,72.30
2023-04-18T13:30:58.581Z,72.50
2023-04-18T13:33:25.699Z,72.30
2023-04-18T13:35:52.622Z,72.40
2023-04-18T13:38:19.537Z,72.50
2023-04-18T13:40:46.391Z,72.40
2023-04-18T13:43:13.771Z,72.60
2023-04-18T13:45:40.800Z,72.80
2023-04-18T13:48:07.720Z,73.00
2023-04-18T13:50:34.629Z,73.20
2023-04-18T13:53:01.542Z,73.30
2023-04-18T13:55:28.887Z,73.20
2023-04-18T13:57:55.841Z,73.40
2023-04-18T14:00:22.726Z,73.40
2023-04-18T14:02:49.868Z,72.80
2023-04-18T14:05:16.823Z,72.60
2023-04-18T14:07:43.733Z,72.40
2023-04-18T14:10:11.259Z,72.40
2023-04-18T14:12:38.105Z,72.20
2023-04-18T14:15:05.643Z,72.40
2023-04-18T14:17:32.730Z,72.50
2023-04-18T14:20:01.076Z,72.80
2023-04-18T14:22:27.971Z,72.80
2023-04-18T14:24:56.179Z,73.20
2023-04-18T14:27:25.479Z,73.40
2023-04-18T14:29:52.294Z,73.80
2023-04-18T14:32:19.328Z,74.10
2023-04-18T14:34:46.586Z,74.20
2023-04-18T14:37:14.625Z,74.40
2023-04-18T14:39:42.438Z,74.40
2023-04-18T14:42:09.429Z,74.70
2023-04-18T14:44:36.281Z,74.80
2023-04-18T14:47:03.237Z,75.00
2023-04-18T14:49:30.150Z,75.20
2023-04-18T14:51:57.029Z,75.40
2023-04-18T14:54:23.859Z,75.30
2023-04-18T14:56:50.732Z,75.20
2023-04-18T14:59:18.003Z,75.10
2023-04-18T15:01:45.046Z,74.90
2023-04-18T15:04:12.107Z,74.70
2023-04-18T15:06:39.220Z,74.50
2023-04-18T15:09:07.023Z,74.70
2023-04-18T15:11:33.837Z,74.80
2023-04-18T15:14:00.898Z,74.60
2023-04-18T15:16:27.822Z,74.60
2023-04-18T15:18:54.859Z,74.40
2023-04-18T15:21:21.703Z,74.30
2023-04-18T15:23:48.591Z,74.20
2023-04-18T15:26:15.891Z,74.10
2023-04-18T15:28:43.007Z,74.20
2023-04-18T15:31:09.940Z,74.20
2023-04-18T15:33:36.931Z,74.10
2023-04-18T15:36:04.104Z,74.20
2023-04-18T15:38:34.256Z,74.30
2023-04-18T15:41:01.084Z,74.20
2023-04-18T15:43:27.921Z,74.40
2023-04-18T15:45:54.806Z,74.30
2023-04-18T15:48:21.759Z,74.50
2023-04-18T15:50:52.191Z,74.70
2023-04-18T15:53:19.131Z,73.90
2023-04-18T15:55:46.921Z,74.90
2023-04-18T15:58:13.773Z,75.00
2023-04-18T16:00:40.580Z,75.10
2023-04-18T16:03:09.889Z,75.10
2023-04-18T16:05:36.855Z,75.10
2023-04-18T16:08:03.698Z,75.10
2023-04-18T16:10:30.534Z,74.90
2023-04-18T16:12:59.416Z,75.00
2023-04-18T16:15:26.411Z,74.90
2023-04-18T16:17:53.439Z,74.80
2023-04-18T16:20:20.823Z,74.70
2023-04-18T16:22:47.960Z,74.70
2023-04-18T16:25:14.937Z,74.80
2023-04-18T16:27:42.687Z,74.90
2023-04-18T16:30:10.262Z,74.80
2023-04-18T16:32:40.328Z,74.90
2023-04-18T16:35:10.226Z,74.90
2023-04-18T16:37:41.308Z,74.70
2023-04-18T16:40:10.101Z,74.00
2023-04-18T16:42:37.625Z,75.00
2023-04-18T16:45:04.950Z,75.00
2023-04-18T16:47:31.988Z,74.90
2023-04-18T16:49:59.130Z,75.00
2023-04-18T16:52:27.047Z,75.10
2023-04-18T16:54:54.009Z,75.00
2023-04-18T16:57:21.002Z,75.00
2023-04-18T16:59:47.966Z,75.10
2023-04-18T17:02:15.163Z,75.60
2023-04-18T17:04:49.566Z,75.10
2023-04-18T17:07:18.738Z,75.20
2023-04-18T17:09:46.000Z,75.20
2023-04-18T17:12:15.889Z,75.10
2023-04-18T17:14:42.873Z,75.30
2023-04-18T17:17:09.808Z,75.30
2023-04-18T17:19:36.945Z,75.10
2023-04-18T17:22:03.863Z,75.00
2023-04-18T17:24:30.832Z,74.60
2023-04-18T17:26:58.007Z,74.90
2023-04-18T17:29:26.128Z,74.90
2023-04-18T17:31:53.594Z,74.80
2023-04-18T17:34:21.338Z,74.50
2023-04-18T17:36:49.651Z,74.60
2023-04-18T17:39:17.855Z,74.50
2023-04-18T17:41:46.314Z,74.40
2023-04-18T17:44:13.248Z,74.20
2023-04-18T17:46:40.239Z,74.40
2023-04-18T17:49:07.344Z,74.50
2023-04-18T17:51:34.370Z,74.40
2023-04-18T17:54:01.345Z,74.40
2023-04-18T17:56:30.413Z,74.50
2023-04-18T17:58:57.417Z,74.60
2023-04-18T18:01:26.163Z,74.70
2023-04-18T18:03:53.794Z,74.80
2023-04-18T18:15:12.930Z,73.80
2023-04-18T18:17:39.858Z,72.70
2023-04-18T18:20:10.572Z,75.30
2023-04-18T18:22:37.469Z,75.10
2023-04-18T18:25:05.467Z,75.80
2023-04-18T18:27:32.324Z,76.30
2023-04-18T18:29:59.480Z,76.70
2023-04-18T18:32:29.131Z,77.00
2023-04-18T18:34:56.148Z,77.20
2023-04-18T18:37:25.398Z,77.40
2023-04-18T18:39:59.191Z,77.50
2023-04-18T18:42:26.175Z,77.70
2023-04-18T18:44:53.019Z,77.70
2023-04-18T18:47:19.956Z,77.80
2023-04-18T18:49:48.646Z,77.90
2023-04-18T18:52:16.257Z,77.90
2023-04-18T18:54:43.207Z,77.90
2023-04-18T18:57:10.118Z,78.00
2023-04-18T18:59:37.026Z,78.00
2023-04-18T19:02:04.706Z,78.10
2023-04-18T19:04:32.391Z,78.10
2023-04-18T19:06:59.748Z,78.20
2023-04-18T19:09:26.775Z,78.20
2023-04-18T19:11:55.003Z,78.20
2023-04-18T19:14:21.902Z,78.20
2023-04-18T19:16:48.750Z,78.40
2023-04-18T19:19:17.432Z,78.30
2023-04-18T19:21:46.092Z,78.30
2023-04-18T19:24:13.408Z,78.40
2023-04-18T19:26:41.138Z,78.40
2023-04-18T19:29:10.498Z,78.40
2023-04-18T19:31:37.400Z,78.40
2023-04-18T19:34:04.373Z,78.40
2023-04-18T19:36:32.098Z,78.40
2023-04-18T19:38:59.010Z,78.40
2023-04-18T19:41:26.036Z,78.30
2023-04-18T19:43:52.936Z,78.20
2023-04-18T19:46:19.863Z,78.20
2023-04-18T19:48:46.747Z,78.20
2023-04-18T19:51:13.573Z,78.20
2023-04-18T19:53:40.461Z,78.10
2023-04-18T19:56:10.743Z,78.10
2023-04-18T19:58:44.835Z,78.20
2023-04-18T20:01:16.358Z,78.00
2023-04-18T20:03:43.456Z,78.10
2023-04-18T20:06:11.002Z,78.10
2023-04-18T20:08:45.123Z,78.00
2023-04-18T20:11:16.564Z,77.90
2023-04-18T20:13:43.388Z,77.90
2023-04-18T20:16:12.151Z,78.00
2023-04-18T20:18:41.442Z,78.10
2023-04-18T20:21:11.037Z,78.00
2023-04-18T20:23:38.312Z,78.00
2023-04-18T20:26:06.647Z,78.10
2023-04-18T20:28:33.645Z,78.10
2023-04-18T20:31:01.425Z,78.10
2023-04-18T20:33:28.308Z,78.20
2023-04-18T20:35:55.212Z,78.20
2023-04-18T20:38:25.824Z,78.30
2023-04-18T20:40:54.206Z,78.30
2023-04-18T20:43:21.524Z,78.30
2023-04-18T20:45:51.523Z,78.40
2023-04-18T20:48:18.675Z,78.30
2023-04-18T20:50:51.153Z,78.30
2023-04-18T20:53:22.542Z,78.40
2023-04-18T20:55:49.556Z,77.80
2023-04-18T20:58:16.843Z,78.40
2023-04-18T21:00:44.612Z,78.50
2023-04-18T21:03:16.430Z,78.50
2023-04-18T21:05:44.988Z,77.80
2023-04-18T21:08:11.904Z,78.40
2023-04-18T21:10:39.158Z,78.40
2023-04-18T21:13:06.101Z,78.40
2023-04-18T21:15:34.216Z,78.40
2023-04-18T21:18:01.055Z,78.40
2023-04-18T21:20:28.097Z,78.40
2023-04-18T21:22:54.912Z,78.80
2023-04-18T21:25:21.786Z,78.50
2023-04-18T21:27:50.599Z,78.50
2023-04-18T21:30:17.635Z,78.50
2023-04-18T21:32:45.823Z,78.50
2023-04-18T21:35:12.929Z,78.30
2023-04-18T21:37:39.734Z,78.80
2023-04-18T21:40:07.707Z,78.30
2023-04-18T21:42:35.897Z,78.30
2023-04-18T21:45:03.848Z,78.20
2023-04-18T21:47:32.368Z,78.10
2023-04-18T21:49:59.856Z,77.60
2023-04-18T21:52:26.863Z,77.60
2023-04-18T21:54:53.789Z,77.90
2023-04-18T21:57:20.671Z,78.00
2023-04-18T21:59:47.482Z,78.10
2023-04-18T22:02:14.393Z,78.10
2023-04-18T22:04:42.767Z,78.20
2023-04-18T22:07:11.337Z,78.20
2023-04-18T22:09:38.503Z,78.30
2023-04-18T22:12:05.669Z,78.40
2023-04-18T22:14:32.519Z,78.50
2023-04-18T22:17:03.292Z,78.70
2023-04-18T22:19:31.265Z,78.80
2023-04-18T22:21:58.320Z,76.10
2023-04-18T22:24:25.948Z,79.10
2023-04-18T22:26:53.190Z,78.90
2023-04-18T22:29:20.007Z,79.00
2023-04-18T22:31:46.884Z,79.10
2023-04-18T22:34:14.033Z,79.10
2023-04-18T22:36:42.614Z,79.00
2023-04-18T22:39:09.628Z,78.90
2023-04-18T22:41:36.456Z,79.00
2023-04-18T22:44:03.442Z,79.00
2023-04-18T22:46:30.454Z,79.00
2023-04-18T22:48:57.461Z,78.90
2023-04-18T22:51:24.406Z,78.90
2023-04-18T22:53:51.245Z,78.80
2023-04-18T22:56:18.089Z,78.80
2023-04-18T22:58:45.026Z,78.80
2023-04-18T23:01:11.947Z,78.80
2023-04-18T23:03:38.906Z,78.90
2023-04-18T23:06:08.017Z,78.80
2023-04-18T23:08:34.822Z,78.60
2023-04-18T23:11:01.714Z,78.60
2023-04-18T23:13:28.604Z,78.60
2023-04-18T23:15:55.436Z,78.70
2023-04-18T23:18:22.281Z,78.70
2023-04-18T23:20:49.097Z,78.70
2023-04-18T23:23:15.943Z,78.80
2023-04-18T23:25:44.082Z,78.70
2023-04-18T23:28:10.957Z,78.70
2023-04-18T23:30:37.848Z,78.60
2023-04-18T23:33:05.120Z,78.70
2023-04-18T23:35:32.001Z,78.80
2023-04-18T23:37:58.911Z,78.70
2023-04-18T23:40:25.757Z,78.70
2023-04-18T23:42:52.559Z,78.70
2023-04-18T23:45:19.513Z,78.80
2023-04-18T23:47:46.515Z,78.80
2023-04-18T23:50:13.377Z,78.90
2023-04-18T23:52:40.573Z,79.00
2023-04-18T23:55:08.182Z,78.90
2023-04-18T23:57:35.012Z,78.90
